Time;durP1;ratioP1;P1;durP2;ratioP2;P2;SDS_P1;SDS_P2;PMS_P1;PMS_P2;Temp;Humidity;BMP_temperature;BMP_pressure;BME280_temperature;BME280_humidity;BME280_pressure;Samples;Min_cycle;Max_cycle;Signal;HPM_P1;HPM_P2
2022/04/20 00:00:08;;;;;;;0.10;0.10;;;5.00;99.90;12.80;88045.00;;;;5021904;28;20195;-72
2022/04/20 00:02:38;;;;;;;0.10;0.10;;;4.70;99.90;12.80;88045.00;;;;5033253;28;20255;-70
2022/04/20 00:05:07;;;;;;;0.10;0.10;;;4.70;99.90;12.80;88045.00;;;;5028654;28;20191;-70
2022/04/20 00:07:37;;;;;;;0.10;0.10;;;4.80;99.90;12.80;88045.00;;;;5015241;28;20200;-70
2022/04/20 00:10:07;;;;;;;0.10;0.10;;;4.90;99.90;12.80;88045.00;;;;5020730;28;20222;-71
2022/04/20 00:12:35;;;;;;;0.10;0.10;;;5.00;99.90;12.80;88045.00;;;;5022543;28;20223;-70
2022/04/20 00:15:04;;;;;;;0.10;0.10;;;5.10;99.90;12.80;88045.00;;;;5034054;28;20203;-70
2022/04/20 00:17:32;;;;;;;0.10;0.10;;;5.20;99.90;12.80;88045.00;;;;5031364;28;20203;-70
2022/04/20 00:20:00;;;;;;;0.10;0.10;;;5.10;99.90;12.80;88045.00;;;;5026957;28;20196;-71
2022/04/20 00:22:28;;;;;;;0.10;0.10;;;5.00;99.90;12.80;88045.00;;;;5013805;28;20224;-71
2022/04/20 00:24:57;;;;;;;0.10;0.10;;;4.70;99.90;12.80;88045.00;;;;5020418;28;20625;-71
2022/04/20 00:27:25;;;;;;;0.10;0.10;;;4.50;99.90;12.80;88045.00;;;;5021144;28;20199;-70
2022/04/20 00:29:53;;;;;;;0.10;0.10;;;4.50;99.90;12.80;88045.00;;;;5022766;28;20243;-70
2022/04/20 00:32:21;;;;;;;0.10;0.10;;;4.40;99.90;12.80;88045.00;;;;5019083;28;20226;-70
2022/04/20 00:34:49;;;;;;;0.10;0.10;;;4.40;99.90;12.80;88045.00;;;;5033221;28;20191;-70
2022/04/20 00:37:18;;;;;;;0.10;0.10;;;4.30;99.90;12.80;88045.00;;;;5032476;28;20558;-72
2022/04/20 00:39:46;;;;;;;0.10;0.10;;;4.40;99.90;12.80;88045.00;;;;5013302;28;20206;-70
2022/04/20 00:42:17;;;;;;;0.10;0.10;;;4.30;99.90;12.80;88045.00;;;;5011589;28;20212;-70
2022/04/20 00:44:45;;;;;;;0.10;0.10;;;4.40;99.90;12.80;88045.00;;;;5013194;28;20215;-70
2022/04/20 00:47:16;;;;;;;0.10;0.10;;;4.50;99.90;12.80;88045.00;;;;5017855;28;20199;-70
2022/04/20 00:49:46;;;;;;;0.10;0.10;;;4.40;99.90;12.80;88045.00;;;;5028655;28;20235;-70
2022/04/20 00:52:14;;;;;;;0.10;0.10;;;4.30;99.90;12.80;88045.00;;;;5026903;28;20220;-71
2022/04/20 00:54:42;;;;;;;0.10;0.10;;;4.10;99.90;12.80;88045.00;;;;5013414;28;20220;-71
2022/04/20 00:57:12;;;;;;;0.10;0.10;;;4.00;99.90;12.80;88045.00;;;;5028730;28;20583;-70
2022/04/20 00:59:43;;;;;;;0.10;0.10;;;3.90;99.90;12.80;88045.00;;;;5011790;28;20208;-70
2022/04/20 01:02:12;;;;;;;0.20;0.20;;;4.00;99.90;12.80;88045.00;;;;5012648;28;20226;-71
2022/04/20 01:04:41;;;;;;;0.10;0.10;;;4.10;99.90;12.80;88045.00;;;;5043321;28;20200;-70
2022/04/20 01:07:15;;;;;;;0.10;0.10;;;4.20;99.90;12.80;88045.00;;;;5011509;28;20586;-71
2022/04/20 01:10:11;;;;;;;0.10;0.10;;;4.20;99.90;12.80;88045.00;;;;5011549;28;20246;-70
2022/04/20 01:12:57;;;;;;;0.20;0.20;;;4.20;99.90;12.80;88045.00;;;;5013271;28;20230;-71
2022/04/20 01:15:40;;;;;;;0.10;0.10;;;4.10;99.90;12.80;88045.00;;;;5011334;28;20582;-70
2022/04/20 01:18:13;;;;;;;0.10;0.10;;;4.00;99.90;12.80;88045.00;;;;5030142;28;20313;-69
2022/04/20 01:21:02;;;;;;;0.10;0.10;;;4.10;99.90;12.80;88045.00;;;;5019303;28;20196;-69
2022/04/20 01:23:49;;;;;;;0.10;0.10;;;4.20;99.90;12.80;88045.00;;;;5009407;28;93468;-71
2022/04/20 01:26:37;;;;;;;0.10;0.10;;;4.20;99.90;12.80;88045.00;;;;5012546;28;20199;-69
2022/04/20 01:29:17;;;;;;;0.10;0.10;;;4.10;99.90;12.80;88045.00;;;;5012753;28;20688;-70
2022/04/20 01:31:58;;;;;;;0.10;0.10;;;4.20;99.90;12.80;88045.00;;;;5030466;28;20223;-70
2022/04/20 01:34:49;;;;;;;0.10;0.10;;;4.40;99.90;12.80;88045.00;;;;5024621;28;20680;-70
2022/04/20 01:37:18;;;;;;;0.10;0.10;;;4.10;99.90;12.80;88045.00;;;;5031460;28;20194;-70
2022/04/20 01:39:47;;;;;;;0.10;0.10;;;3.80;99.90;12.80;88045.00;;;;5047704;28;20611;-69
2022/04/20 01:42:15;;;;;;;0.10;0.10;;;3.60;99.90;12.80;88045.00;;;;5031165;28;20218;-70
2022/04/20 01:44:47;;;;;;;0.10;0.10;;;3.30;99.90;12.80;88045.00;;;;5041350;28;20200;-70
2022/04/20 01:47:34;;;;;;;0.10;0.10;;;3.20;99.90;12.80;88045.00;;;;5013461;28;20207;-69
2022/04/20 01:50:24;;;;;;;0.10;0.10;;;3.20;99.90;12.80;88045.00;;;;5011365;28;20708;-71
2022/04/20 01:53:15;;;;;;;0.13;0.13;;;3.40;99.90;12.80;88045.00;;;;5027855;28;20224;-70
2022/04/20 01:56:06;;;;;;;0.10;0.10;;;3.40;99.90;12.80;88045.00;;;;5014615;28;20204;-70
2022/04/20 01:58:54;;;;;;;0.13;0.13;;;3.40;99.90;12.80;88045.00;;;;5014565;28;20215;-71
2022/04/20 02:04:28;;;;;;;0.10;0.10;;;3.50;99.90;12.80;88045.00;;;;5045585;28;20206;-70
2022/04/20 02:06:57;;;;;;;0.10;0.10;;;3.70;99.90;12.80;88045.00;;;;5031033;28;20203;-70
2022/04/20 02:09:35;;;;;;;0.10;0.10;;;3.70;99.90;12.80;88045.00;;;;5026677;28;20551;-70
2022/04/20 02:12:08;;;;;;;0.17;0.17;;;3.70;99.90;12.80;88045.00;;;;5011730;28;20215;-70
2022/04/20 02:15:12;;;;;;;0.10;0.10;;;3.70;99.90;12.80;88045.00;;;;5047625;28;20253;-70
2022/04/20 02:17:58;;;;;;;0.08;0.08;;;3.40;99.90;12.80;88045.00;;;;5030751;28;20272;-70
2022/04/20 02:20:39;;;;;;;0.10;0.10;;;3.10;99.90;12.80;88045.00;;;;5044623;28;20228;-70
2022/04/20 02:23:08;;;;;;;0.10;0.10;;;2.80;99.90;12.80;88045.00;;;;5012895;28;20219;-70
2022/04/20 02:25:37;;;;;;;0.10;0.10;;;2.70;99.90;12.80;88045.00;;;;5012224;28;20192;-71
2022/04/20 02:28:06;;;;;;;0.10;0.10;;;2.60;99.90;12.80;88045.00;;;;5016634;28;20665;-70
2022/04/20 02:30:34;;;;;;;0.10;0.10;;;2.70;99.90;12.80;88045.00;;;;5012503;28;20265;-70
2022/04/20 02:33:02;;;;;;;0.10;0.10;;;2.80;99.90;12.80;88045.00;;;;5028767;28;20224;-70
2022/04/20 02:35:32;;;;;;;0.10;0.10;;;2.80;99.90;12.80;88045.00;;;;5044612;28;20195;-71
2022/04/20 02:38:00;;;;;;;0.10;0.10;;;2.90;99.90;12.80;88045.00;;;;5032804;28;20715;-70
2022/04/20 02:40:29;;;;;;;0.10;0.10;;;2.90;99.90;12.80;88045.00;;;;5033936;28;20198;-71
2022/04/20 02:42:58;;;;;;;0.10;0.10;;;3.10;99.90;12.80;88045.00;;;;5034284;28;20241;-70
2022/04/20 02:45:26;;;;;;;0.10;0.10;;;3.00;99.90;12.80;88045.00;;;;5018186;28;20207;-71
2022/04/20 02:47:55;;;;;;;0.10;0.10;;;2.90;99.90;12.80;88045.00;;;;5033714;28;20195;-71
2022/04/20 02:50:23;;;;;;;0.10;0.10;;;3.00;99.90;12.80;88045.00;;;;5029495;28;20215;-70
2022/04/20 02:52:51;;;;;;;0.20;0.20;;;3.10;99.90;12.80;88045.00;;;;5011768;28;20218;-71
2022/04/20 02:55:19;;;;;;;0.10;0.10;;;3.00;99.90;12.80;88045.00;;;;5010293;28;20195;-70
2022/04/20 02:57:47;;;;;;;0.10;0.10;;;2.90;99.90;12.80;88045.00;;;;5011264;28;20194;-70
2022/04/20 03:00:18;;;;;;;0.10;0.10;;;3.00;99.90;12.80;88045.00;;;;5010429;28;20199;-69
2022/04/20 03:02:54;;;;;;;0.10;0.10;;;3.00;99.90;12.80;88045.00;;;;5010979;28;20223;-69
2022/04/20 03:05:22;;;;;;;0.10;0.10;;;3.20;99.90;12.80;88045.00;;;;5010283;28;20295;-69
2022/04/20 03:07:51;;;;;;;0.20;0.20;;;3.10;99.90;12.80;88045.00;;;;5026645;28;20620;-70
2022/04/20 03:10:19;;;;;;;0.10;0.10;;;3.00;99.90;12.80;88045.00;;;;5010236;28;20227;-70
2022/04/20 03:12:47;;;;;;;0.20;0.20;;;2.60;99.90;12.80;88045.00;;;;5025494;28;20820;-70
2022/04/20 03:15:16;;;;;;;0.10;0.10;;;2.50;99.90;12.80;88045.00;;;;5013340;28;20192;-70
2022/04/20 03:17:45;;;;;;;0.10;0.10;;;2.10;99.90;12.80;88045.00;;;;5032906;28;20195;-71
2022/04/20 03:20:13;;;;;;;0.10;0.10;;;2.00;99.90;12.80;88045.00;;;;5033520;28;20198;-69
2022/04/20 03:22:41;;;;;;;0.10;0.10;;;2.10;99.90;12.80;88045.00;;;;5033333;28;20220;-70
2022/04/20 03:25:11;;;;;;;0.10;0.10;;;2.10;99.90;12.80;88045.00;;;;5031953;28;20620;-69
2022/04/20 03:27:53;;;;;;;0.10;0.10;;;2.20;99.90;12.80;88045.00;;;;5016604;28;20253;-70
2022/04/20 03:30:24;;;;;;;0.10;0.10;;;2.30;99.90;12.80;88045.00;;;;5037361;28;20211;-70
2022/04/20 03:32:52;;;;;;;0.10;0.10;;;2.20;99.90;12.80;88045.00;;;;5018362;28;20301;-70
2022/04/20 03:35:20;;;;;;;0.10;0.10;;;2.20;99.90;12.80;88045.00;;;;5031234;28;20820;-70
2022/04/20 03:37:48;;;;;;;0.10;0.10;;;2.20;99.90;12.80;88045.00;;;;5018936;28;20192;-71
2022/04/20 03:40:17;;;;;;;0.15;0.15;;;2.20;99.90;12.80;88045.00;;;;5050473;28;20195;-71
2022/04/20 03:42:45;;;;;;;0.10;0.10;;;2.20;99.90;12.80;88045.00;;;;5035099;28;20582;-71
2022/04/20 03:45:13;;;;;;;0.20;0.20;;;2.20;99.90;12.80;88045.00;;;;5027523;28;20206;-71
2022/04/20 03:47:43;;;;;;;0.10;0.10;;;2.40;99.90;12.80;88045.00;;;;5020570;28;20195;-71
2022/04/20 03:50:17;;;;;;;0.10;0.10;;;2.50;99.90;12.80;88045.00;;;;5030616;28;20194;-71
2022/04/20 03:52:46;;;;;;;0.20;0.20;;;2.50;99.90;12.80;88045.00;;;;5028820;28;20223;-71
2022/04/20 03:55:14;;;;;;;0.10;0.10;;;2.50;99.90;12.80;88045.00;;;;5021310;28;20208;-70
2022/04/20 03:57:42;;;;;;;0.10;0.10;;;2.30;99.90;12.80;88045.00;;;;5025054;28;20210;-70
2022/04/20 04:00:13;;;;;;;0.10;0.10;;;2.30;99.90;12.80;88045.00;;;;5040464;28;20620;-69
2022/04/20 04:02:45;;;;;;;0.13;0.13;;;2.30;99.90;12.80;88045.00;;;;5034332;28;20215;-69
2022/04/20 04:05:25;;;;;;;0.10;0.10;;;2.30;99.90;12.80;88045.00;;;;5046535;28;20278;-69
2022/04/20 04:07:58;;;;;;;0.10;0.10;;;2.30;99.90;12.80;88045.00;;;;5029917;28;20203;-69
2022/04/20 04:10:33;;;;;;;0.10;0.10;;;2.30;99.90;12.80;88045.00;;;;5014600;28;20572;-69
2022/04/20 04:13:01;;;;;;;0.20;0.20;;;2.20;99.90;12.80;88045.00;;;;5013457;28;20219;-69
2022/04/20 04:15:31;;;;;;;0.20;0.20;;;2.40;99.90;12.80;88045.00;;;;5014515;28;20195;-70
2022/04/20 04:18:01;;;;;;;0.10;0.10;;;2.30;99.90;12.80;88045.00;;;;5015713;28;20200;-70
2022/04/20 04:20:37;;;;;;;0.10;0.10;;;2.30;99.90;12.80;88045.00;;;;5025163;28;20183;-70
2022/04/20 04:23:07;;;;;;;0.10;0.10;;;2.30;99.90;12.80;88045.00;;;;5083990;22;20226;-71
2022/04/20 04:25:44;;;;;;;0.10;0.10;;;2.30;99.90;12.80;88045.00;;;;5037518;28;20190;-71
2022/04/20 04:28:28;;;;;;;0.10;0.10;;;2.30;99.90;12.80;88045.00;;;;5037115;28;20257;-71
2022/04/20 04:30:56;;;;;;;0.20;0.20;;;2.50;99.90;12.80;88045.00;;;;5033060;28;20226;-71
2022/04/20 04:33:26;;;;;;;0.10;0.10;;;2.50;99.90;12.80;88045.00;;;;5052247;28;20325;-71
2022/04/20 04:35:54;;;;;;;0.20;0.20;;;2.30;99.90;12.80;88045.00;;;;5052735;28;20190;-71
2022/04/20 04:38:22;;;;;;;0.10;0.10;;;2.10;99.90;12.80;88045.00;;;;5053711;28;20198;-69
2022/04/20 04:40:50;;;;;;;0.20;0.20;;;2.00;99.90;12.80;88045.00;;;;5063968;28;20197;-71
2022/04/20 04:43:25;;;;;;;0.10;0.10;;;2.00;99.90;12.80;88045.00;;;;5037562;28;20659;-71
2022/04/20 04:49:06;;;;;;;0.10;0.10;;;1.90;99.90;12.80;88045.00;;;;5000392;28;20275;-71
2022/04/20 04:51:35;;;;;;;0.10;0.10;;;2.10;99.90;12.80;88045.00;;;;5032252;28;20226;-72
2022/04/20 04:54:04;;;;;;;0.10;0.10;;;2.10;99.90;12.80;88045.00;;;;5033228;28;20696;-70
2022/04/20 04:56:33;;;;;;;0.10;0.10;;;2.00;99.90;12.80;88045.00;;;;5040912;28;20186;-70
2022/04/20 04:59:01;;;;;;;0.03;0.03;;;2.00;99.90;12.80;88045.00;;;;5030664;28;20191;-70
2022/04/20 05:01:31;;;;;;;0.10;0.10;;;2.00;99.90;12.80;88045.00;;;;5029865;28;20203;-70
2022/04/20 05:04:07;;;;;;;0.10;0.10;;;2.00;99.90;12.80;88045.00;;;;5032614;28;20306;-70
2022/04/20 05:06:36;;;;;;;0.10;0.10;;;2.10;99.90;12.80;88045.00;;;;5032069;28;20199;-70
2022/04/20 05:09:12;;;;;;;0.10;0.10;;;2.10;99.90;12.80;88045.00;;;;5013550;28;20294;-70
2022/04/20 05:11:43;;;;;;;0.10;0.10;;;2.10;99.90;12.80;88045.00;;;;5013075;28;20342;-71
2022/04/20 05:14:13;;;;;;;0.10;0.10;;;2.20;99.90;12.80;88045.00;;;;5016822;28;20589;-71
2022/04/20 05:16:45;;;;;;;0.10;0.10;;;2.20;99.90;12.80;88045.00;;;;5030860;28;20203;-71
2022/04/20 05:19:17;;;;;;;0.10;0.10;;;2.30;99.90;12.80;88045.00;;;;5018773;28;20202;-71
2022/04/20 05:21:47;;;;;;;0.10;0.10;;;2.30;99.90;12.80;88045.00;;;;5029546;28;20200;-71
2022/04/20 05:24:24;;;;;;;0.10;0.10;;;2.30;99.90;12.80;88045.00;;;;5013769;28;20237;-71
2022/04/20 05:26:52;;;;;;;0.15;0.15;;;2.30;99.90;12.80;88045.00;;;;5028302;28;20203;-71
2022/04/20 05:29:21;;;;;;;0.17;0.17;;;2.40;99.90;12.80;88045.00;;;;5019872;28;20203;-70
2022/04/20 05:31:59;;;;;;;0.10;0.10;;;2.50;99.90;12.80;88045.00;;;;5047496;28;20219;-70
2022/04/20 05:34:33;;;;;;;0.10;0.10;;;2.50;99.90;12.80;88045.00;;;;5030263;28;20699;-71
2022/04/20 05:42:41;;;;;;;0.10;0.10;;;2.70;99.90;12.80;88045.00;;;;5011753;28;20286;-71
2022/04/20 05:45:10;;;;;;;0.10;0.10;;;2.90;99.90;12.80;88045.00;;;;5022447;28;20594;-71
2022/04/20 05:47:40;;;;;;;0.10;0.10;;;2.90;99.90;12.80;88045.00;;;;5011329;28;20200;-71
2022/04/20 05:50:10;;;;;;;0.10;0.10;;;3.00;99.90;12.80;88045.00;;;;5010871;28;20203;-71
2022/04/20 05:52:39;;;;;;;0.10;0.10;;;3.10;99.90;12.80;88045.00;;;;5021797;28;20233;-71
2022/04/20 05:55:09;;;;;;;0.10;0.10;;;3.20;99.90;12.80;88045.00;;;;5031351;28;20621;-71
2022/04/20 05:57:40;;;;;;;0.10;0.10;;;3.40;99.90;12.80;88045.00;;;;5031278;28;20205;-70
2022/04/20 06:00:09;;;;;;;0.10;0.10;;;3.40;99.90;12.80;88045.00;;;;5051472;28;20202;-71
2022/04/20 06:02:47;;;;;;;0.10;0.10;;;3.50;99.90;12.80;88045.00;;;;5034404;28;20249;-71
2022/04/20 06:05:21;;;;;;;0.10;0.10;;;3.60;99.90;12.80;88045.00;;;;5031523;28;20206;-70
2022/04/20 06:08:12;;;;;;;0.10;0.10;;;3.70;99.90;12.80;88045.00;;;;5021729;28;20538;-70
2022/04/20 06:10:57;;;;;;;0.10;0.10;;;3.90;99.90;12.80;88045.00;;;;5030978;28;20202;-71
2022/04/20 06:13:27;;;;;;;0.10;0.10;;;3.90;99.90;12.80;88045.00;;;;5047432;28;20644;-71
2022/04/20 06:16:06;;;;;;;0.10;0.10;;;4.00;99.90;12.80;88045.00;;;;5048452;28;20230;-70
2022/04/20 06:18:47;;;;;;;0.10;0.10;;;4.10;99.90;12.80;88045.00;;;;5048717;28;20289;-70
2022/04/20 06:21:27;;;;;;;0.10;0.10;;;4.20;99.90;12.80;88045.00;;;;5047772;28;20198;-71
2022/04/20 06:24:11;;;;;;;0.10;0.10;;;4.30;99.90;12.80;88045.00;;;;5048152;28;20235;-71
2022/04/20 06:26:46;;;;;;;0.10;0.10;;;4.40;99.90;12.80;88045.00;;;;5033330;28;20271;-70
2022/04/20 06:29:38;;;;;;;0.20;0.20;;;4.50;99.90;12.80;88045.00;;;;5032858;28;20183;-71
2022/04/20 06:32:24;;;;;;;0.10;0.10;;;4.60;99.90;12.80;88045.00;;;;5030511;28;20238;-71
2022/04/20 06:35:11;;;;;;;0.10;0.10;;;4.70;99.90;12.80;88045.00;;;;5032031;28;20277;-71
2022/04/20 06:37:59;;;;;;;0.10;0.10;;;4.80;99.90;12.80;88045.00;;;;5032268;28;20201;-70
2022/04/20 06:40:39;;;;;;;0.10;0.10;;;4.90;99.90;12.80;88045.00;;;;5047142;28;20666;-70
2022/04/20 06:43:29;;;;;;;0.10;0.10;;;4.90;99.90;12.80;88045.00;;;;5023595;28;20231;-70
2022/04/20 06:46:26;;;;;;;0.10;0.10;;;5.10;99.90;12.80;88045.00;;;;5031653;28;20670;-70
2022/04/20 06:49:17;;;;;;;0.10;0.10;;;5.20;99.90;12.80;88045.00;;;;5011946;28;20230;-70
2022/04/20 07:00:39;;;;;;;0.10;0.10;;;5.80;99.90;12.80;88045.00;;;;5012208;28;20195;-70
2022/04/20 07:03:12;;;;;;;0.10;0.10;;;6.00;99.90;12.80;88045.00;;;;5015246;28;20501;-71
2022/04/20 07:05:53;;;;;;;0.10;0.10;;;6.10;99.90;12.80;88045.00;;;;5014026;28;20561;-70
2022/04/20 07:08:40;;;;;;;0.10;0.10;;;6.30;99.90;12.80;88045.00;;;;5012736;28;20202;-70
2022/04/20 07:11:17;;;;;;;0.10;0.10;;;6.40;99.90;12.80;88045.00;;;;5010417;28;20203;-70
2022/04/20 07:13:47;;;;;;;0.10;0.10;;;6.50;99.90;12.80;88045.00;;;;5010601;28;20334;-71
2022/04/20 07:16:17;;;;;;;0.10;0.10;;;6.50;99.90;12.80;88045.00;;;;5010313;28;20611;-70
2022/04/20 07:18:55;;;;;;;0.10;0.10;;;6.60;99.90;12.80;88045.00;;;;5010511;28;20269;-70
2022/04/20 07:21:41;;;;;;;0.10;0.10;;;6.70;99.90;12.80;88045.00;;;;5011777;28;20202;-71
2022/04/20 07:24:31;;;;;;;0.10;0.10;;;7.00;99.90;12.80;88045.00;;;;5011862;28;20559;-71
2022/04/20 07:27:00;;;;;;;0.10;0.10;;;7.20;99.90;12.80;88045.00;;;;5011440;28;20196;-71
2022/04/20 07:29:40;;;;;;;0.10;0.10;;;7.50;99.90;12.80;88045.00;;;;5011086;28;20202;-71
2022/04/20 07:32:15;;;;;;;0.10;0.10;;;7.70;99.90;12.80;88045.00;;;;5012359;28;20823;-71
2022/04/20 07:34:57;;;;;;;0.10;0.10;;;7.80;99.90;12.80;88045.00;;;;5011117;28;20286;-70
2022/04/20 07:37:33;;;;;;;0.10;0.10;;;8.00;99.90;12.80;88045.00;;;;5010529;28;20537;-71
2022/04/20 07:40:31;;;;;;;0.10;0.10;;;8.10;99.90;12.80;88045.00;;;;4998100;28;20212;-73
2022/04/20 07:43:27;;;;;;;0.10;0.10;;;8.20;99.90;12.80;88045.00;;;;5010447;28;20219;-71
2022/04/20 07:46:34;;;;;;;0.10;0.10;;;8.40;99.90;12.80;88045.00;;;;4950303;29;20228;-70
2022/04/20 07:52:41;;;;;;;0.10;0.10;;;8.60;99.90;12.80;88045.00;;;;5000007;28;20224;-71
2022/04/20 07:55:19;;;;;;;0.10;0.10;;;8.70;99.90;12.80;88045.00;;;;5010025;28;20200;-71
2022/04/20 07:57:56;;;;;;;0.10;0.10;;;8.80;99.90;12.80;88045.00;;;;5011213;28;20180;-72
2022/04/20 08:00:46;;;;;;;0.10;0.10;;;9.10;99.90;12.80;88045.00;;;;5011293;28;20200;-70
2022/04/20 08:03:37;;;;;;;0.10;0.10;;;9.40;99.90;12.80;88045.00;;;;4977838;28;20566;-70
2022/04/20 08:06:07;;;;;;;0.10;0.10;;;9.60;99.90;12.80;88045.00;;;;5013609;28;20226;-70
2022/04/20 08:08:39;;;;;;;0.10;0.10;;;9.90;99.90;12.80;88045.00;;;;5014168;28;20200;-70
2022/04/20 08:11:07;;;;;;;0.10;0.10;;;10.10;99.90;12.80;88045.00;;;;5013926;28;20203;-70
2022/04/20 08:16:41;;;;;;;0.03;0.03;;;10.50;99.90;12.80;88045.00;;;;5014895;28;20246;-71
2022/04/20 08:19:25;;;;;;;0.10;0.10;;;10.70;99.90;12.80;88045.00;;;;5015202;28;20226;-70
2022/04/20 08:22:05;;;;;;;0.10;0.10;;;10.80;99.90;12.80;88045.00;;;;5018303;28;20203;-71
2022/04/20 08:24:33;;;;;;;0.10;0.10;;;10.90;99.00;12.80;88045.00;;;;5015343;28;20641;-71
2022/04/20 08:27:03;;;;;;;0.10;0.10;;;11.10;96.10;12.80;88045.00;;;;5018120;28;20573;-71
2022/04/20 08:29:30;;;;;;;0.10;0.10;;;11.30;95.00;12.80;88045.00;;;;5024678;28;20588;-71
2022/04/20 08:32:00;;;;;;;0.00;0.00;;;11.40;96.20;12.80;88156.00;;;;5030076;28;20295;-71
2022/04/20 08:34:28;;;;;;;0.10;0.10;;;11.50;96.80;12.80;88045.00;;;;5022913;28;20234;-71
2022/04/20 08:37:16;;;;;;;0.10;0.10;;;11.60;97.30;12.80;88045.00;;;;5014374;28;20235;-71
2022/04/20 08:39:45;;;;;;;0.10;0.10;;;11.60;97.20;12.80;88045.00;;;;5013322;28;20303;-71
2022/04/20 08:42:14;;;;;;;0.10;0.10;;;11.60;97.10;12.80;88045.00;;;;5034350;28;20183;-71
2022/04/20 08:44:47;;;;;;;0.10;0.10;;;11.60;97.10;12.80;88045.00;;;;5032872;28;20229;-71
2022/04/20 08:47:21;;;;;;;0.10;0.10;;;11.70;97.10;12.80;88045.00;;;;5033969;28;20199;-71
2022/04/20 08:49:51;;;;;;;0.10;0.10;;;11.80;97.20;12.80;88045.00;;;;5033978;28;20206;-71
2022/04/20 08:55:17;;;;;;;0.10;0.10;;;11.90;97.10;12.80;88045.00;;;;5010120;28;20215;-71
2022/04/20 08:57:47;;;;;;;0.10;0.10;;;11.70;96.70;12.80;88045.00;;;;5034159;28;20213;-71
2022/04/20 09:00:21;;;;;;;0.10;0.10;;;11.90;96.30;12.80;88045.00;;;;5033733;28;20204;-71
2022/04/20 09:02:52;;;;;;;0.10;0.10;;;12.10;96.20;12.80;88045.00;;;;5033803;28;20307;-71
2022/04/20 09:05:21;;;;;;;0.10;0.10;;;12.30;95.40;12.80;88045.00;;;;5033690;28;20604;-71
2022/04/20 09:07:50;;;;;;;0.10;0.10;;;12.40;95.30;12.80;88045.00;;;;5033471;28;20659;-71
2022/04/20 09:10:18;;;;;;;0.10;0.10;;;12.50;94.80;12.80;88045.00;;;;5033569;28;20213;-71
2022/04/20 09:12:48;;;;;;;0.10;0.10;;;12.40;95.00;12.80;88045.00;;;;5018582;28;20250;-71
2022/04/20 09:15:31;;;;;;;0.10;0.10;;;12.30;95.00;12.80;88154.00;;;;5029272;28;20222;-71
2022/04/20 09:18:03;;;;;;;0.10;0.10;;;12.30;94.40;12.80;88045.00;;;;5031149;28;20727;-71
2022/04/20 09:20:32;;;;;;;0.10;0.10;;;12.30;94.90;12.80;88045.00;;;;5026888;28;20278;-71
2022/04/20 09:23:03;;;;;;;0.10;0.10;;;12.30;95.30;12.80;88045.00;;;;5012100;28;20227;-71
2022/04/20 09:25:33;;;;;;;0.10;0.10;;;12.30;95.70;12.80;88045.00;;;;5013152;28;20184;-71
2022/04/20 09:28:01;;;;;;;0.10;0.10;;;12.30;95.50;12.80;88045.00;;;;5013251;28;20191;-71
2022/04/20 09:30:35;;;;;;;0.10;0.10;;;12.30;95.20;12.80;88045.00;;;;5012637;28;20203;-71
2022/04/20 09:33:07;;;;;;;0.08;0.08;;;12.30;94.90;12.80;88045.00;;;;5013197;28;20222;-71
2022/04/20 09:35:42;;;;;;;0.10;0.10;;;12.40;95.30;12.80;88045.00;;;;5013072;28;20207;-72
2022/04/20 09:38:11;;;;;;;0.10;0.10;;;12.40;94.80;12.80;88045.00;;;;5013095;28;20187;-71
2022/04/20 09:41:05;;;;;;;0.10;0.10;;;12.40;95.00;12.80;88045.00;;;;5012269;28;20199;-71
2022/04/20 09:43:33;;;;;;;0.10;0.10;;;12.40;95.50;12.80;88045.00;;;;5014605;28;20215;-71
2022/04/20 09:48:50;;;;;;;0.03;0.03;;;12.40;95.50;12.80;88045.00;;;;5014324;28;20188;-71
2022/04/20 09:49:06;;;;;;;0.10;0.10;;;12.40;95.60;12.80;88045.00;;;;5012805;28;20196;-71
2022/04/20 09:51:37;;;;;;;0.10;0.10;;;12.40;95.90;12.80;88045.00;;;;5013060;28;20553;-71
2022/04/20 09:54:23;;;;;;;0.10;0.10;;;12.40;95.80;12.80;88045.00;;;;5028849;28;20220;-71
2022/04/20 09:57:09;;;;;;;0.10;0.10;;;12.30;95.90;12.80;88045.00;;;;5017870;28;20479;-71
2022/04/20 09:59:38;;;;;;;0.10;0.10;;;12.40;96.00;12.80;88045.00;;;;5017594;28;20275;-71
2022/04/20 10:02:12;;;;;;;0.10;0.10;;;12.50;96.20;12.80;88045.00;;;;5013001;28;20204;-71
2022/04/20 10:04:44;;;;;;;0.10;0.10;;;12.50;96.00;12.80;88045.00;;;;5011742;28;20247;-71
2022/04/20 10:07:12;;;;;;;0.10;0.10;;;12.50;96.30;12.80;88045.00;;;;5013266;28;20195;-71
2022/04/20 10:09:43;;;;;;;0.10;0.10;;;12.50;96.20;12.80;88045.00;;;;5013238;28;20188;-71
2022/04/20 10:12:16;;;;;;;0.10;0.10;;;12.40;96.40;12.80;88045.00;;;;5013597;28;20192;-71
2022/04/20 10:17:45;;;;;;;0.10;0.10;;;12.50;96.30;12.80;88045.00;;;;5017127;28;20191;-71
2022/04/20 10:20:15;;;;;;;0.10;0.10;;;12.50;96.40;12.80;88045.00;;;;5019940;28;20257;-71
2022/04/20 10:22:44;;;;;;;0.10;0.10;;;12.50;96.40;12.80;88045.00;;;;5030022;28;20192;-71
2022/04/20 10:25:13;;;;;;;0.10;0.10;;;12.40;95.90;12.80;88045.00;;;;5055340;22;20235;-70
2022/04/20 10:27:59;;;;;;;0.10;0.10;;;12.40;96.30;12.80;88045.00;;;;5033779;28;20222;-70
2022/04/20 10:30:45;;;;;;;0.10;0.10;;;12.40;96.10;12.80;88045.00;;;;5033606;28;20675;-73
2022/04/20 10:33:19;;;;;;;0.10;0.10;;;12.60;96.30;12.80;88045.00;;;;5047302;28;20663;-70
2022/04/20 10:35:58;;;;;;;0.10;0.10;;;12.60;96.00;12.80;88045.00;;;;5030726;28;20242;-70
2022/04/20 10:38:31;;;;;;;0.10;0.10;;;12.80;95.60;12.80;88045.00;;;;5048214;28;20227;-70
2022/04/20 10:41:12;;;;;;;0.10;0.10;;;12.90;95.60;12.80;88045.00;;;;5030923;28;20277;-70
2022/04/20 10:43:43;;;;;;;0.10;0.10;;;12.90;95.50;12.80;88045.00;;;;5048218;28;20219;-70
2022/04/20 10:46:15;;;;;;;0.10;0.10;;;13.00;95.20;12.80;88045.00;;;;5032457;28;20253;-72
2022/04/20 10:48:56;;;;;;;0.10;0.10;;;13.00;95.10;12.80;88045.00;;;;5033373;28;20687;-70
2022/04/20 10:51:39;;;;;;;0.10;0.10;;;13.00;94.20;12.80;88045.00;;;;5031973;28;20194;-70
2022/04/20 10:54:29;;;;;;;0.10;0.10;;;13.10;94.20;12.80;88045.00;;;;5031743;28;20257;-70
2022/04/20 10:57:14;;;;;;;0.10;0.10;;;13.10;94.30;12.80;88045.00;;;;5039648;28;20206;-70
2022/04/20 10:59:42;;;;;;;0.10;0.10;;;13.20;94.20;12.80;88045.00;;;;5014642;28;20195;-70
2022/04/20 11:02:13;;;;;;;0.10;0.10;;;13.30;93.70;12.80;88045.00;;;;5031572;28;20187;-70
2022/04/20 11:04:46;;;;;;;0.10;0.10;;;13.30;93.90;12.80;88045.00;;;;5023424;28;20295;-70
2022/04/20 11:07:26;;;;;;;0.10;0.10;;;13.30;94.10;12.80;88045.00;;;;5011443;28;20195;-70
2022/04/20 11:10:05;;;;;;;0.10;0.10;;;13.30;94.20;12.80;88045.00;;;;5012407;28;20195;-69
2022/04/20 11:19:08;;;;;;;0.10;0.10;;;13.60;93.30;12.80;88045.00;;;;5010991;28;20199;-70
2022/04/20 11:22:08;;;;;;;0.00;0.00;;;13.60;93.30;12.80;88045.00;;;;5011026;28;20549;-70
2022/04/20 11:24:43;;;;;;;0.10;0.10;;;13.50;93.60;12.80;88045.00;;;;5022855;28;20259;-69
2022/04/20 11:27:13;;;;;;;0.10;0.10;;;13.60;94.00;12.80;88045.00;;;;5016996;28;20203;-70
2022/04/20 11:29:43;;;;;;;0.10;0.10;;;13.80;93.60;12.80;88045.00;;;;5031837;28;20183;-70
2022/04/20 11:32:14;;;;;;;0.00;0.00;;;13.90;93.60;12.80;88045.00;;;;5031460;28;20196;-70
2022/04/20 11:35:07;;;;;;;0.10;0.10;;;13.90;93.40;12.80;88045.00;;;;5046256;28;20696;-71
2022/04/20 11:37:37;;;;;;;0.10;0.10;;;13.90;93.40;12.80;88045.00;;;;5050582;28;20616;-70
2022/04/20 11:40:14;;;;;;;0.10;0.10;;;13.90;93.50;12.80;88045.00;;;;5041508;28;20241;-70
2022/04/20 11:43:04;;;;;;;0.10;0.10;;;14.00;93.80;12.80;88045.00;;;;5056824;28;20222;-70
2022/04/20 11:45:53;;;;;;;0.10;0.10;;;14.00;93.80;12.80;88045.00;;;;5040246;28;20202;-72
2022/04/20 11:48:22;;;;;;;0.10;0.10;;;14.00;93.70;12.80;88045.00;;;;5038701;28;20195;-70
2022/04/20 11:50:56;;;;;;;0.10;0.10;;;13.90;93.90;12.80;88045.00;;;;5039247;28;20195;-70
2022/04/20 11:53:33;;;;;;;0.10;0.10;;;14.00;94.10;12.80;88045.00;;;;5036986;28;20221;-70
2022/04/20 11:56:37;;;;;;;0.10;0.10;;;14.10;94.10;12.80;88045.00;;;;5036168;28;20227;-70
2022/04/20 11:59:07;;;;;;;0.10;0.10;;;14.20;94.20;12.80;88045.00;;;;5037517;28;20274;-70
2022/04/20 12:01:38;;;;;;;0.10;0.10;;;14.30;94.30;12.80;88045.00;;;;5036426;28;20218;-70
2022/04/20 12:04:14;;;;;;;0.10;0.10;;;14.40;94.30;12.80;88045.00;;;;5034784;28;20226;-70
2022/04/20 12:06:49;;;;;;;0.10;0.10;;;14.70;94.20;12.80;88045.00;;;;5034545;28;20198;-70
2022/04/20 12:09:22;;;;;;;0.10;0.10;;;14.80;93.60;12.80;88045.00;;;;5034945;28;20232;-70
2022/04/20 12:11:53;;;;;;;0.00;0.00;;;14.80;93.70;12.80;88045.00;;;;5034762;28;20728;-70